sensor_id;sensor_type;location;lat;lon;timestamp;temperature;humidity
52859;DHT22;38721;53.098;6.596;2022-10-26T00:01:09;10.60;99.90
52859;DHT22;38721;53.098;6.596;2022-10-26T00:03:35;10.70;99.90
52859;DHT22;38721;53.098;6.596;2022-10-26T00:06:05;10.70;99.90
52859;DHT22;38721;53.098;6.596;2022-10-26T00:08:31;10.70;99.90
52859;DHT22;38721;53.098;6.596;2022-10-26T00:10:57;10.70;99.90
52859;DHT22;38721;53.098;6.596;2022-10-26T00:13:22;10.60;99.90
52859;DHT22;38721;53.098;6.596;2022-10-26T00:15:48;10.60;99.90
52859;DHT22;38721;53.098;6.596;2022-10-26T00:18:14;10.80;99.90
52859;DHT22;38721;53.098;6.596;2022-10-26T00:20:39;10.70;99.90
52859;DHT22;38721;53.098;6.596;2022-10-26T00:23:07;10.70;99.90
52859;DHT22;38721;53.098;6.596;2022-10-26T00:25:36;10.80;99.90
52859;DHT22;38721;53.098;6.596;2022-10-26T00:28:02;10.70;99.90
52859;DHT22;38721;53.098;6.596;2022-10-26T00:30:30;10.70;99.90
52859;DHT22;38721;53.098;6.596;2022-10-26T00:32:56;10.70;99.90
52859;DHT22;38721;53.098;6.596;2022-10-26T00:35:22;10.60;99.90
52859;DHT22;38721;53.098;6.596;2022-10-26T00:37:48;10.70;99.90
52859;DHT22;38721;53.098;6.596;2022-10-26T00:40:18;10.70;99.90
52859;DHT22;38721;53.098;6.596;2022-10-26T00:42:43;10.70;99.90
52859;DHT22;38721;53.098;6.596;2022-10-26T00:45:19;10.60;99.90
52859;DHT22;38721;53.098;6.596;2022-10-26T00:48:06;10.70;99.90
52859;DHT22;38721;53.098;6.596;2022-10-26T00:50:38;10.50;99.90
52859;DHT22;38721;53.098;6.596;2022-10-26T00:53:05;10.70;99.90
52859;DHT22;38721;53.098;6.596;2022-10-26T00:55:36;10.60;99.90
52859;DHT22;38721;53.098;6.596;2022-10-26T00:58:05;10.50;99.90
52859;DHT22;38721;53.098;6.596;2022-10-26T01:00:31;10.60;99.90
52859;DHT22;38721;53.098;6.596;2022-10-26T01:03:00;10.60;99.90
52859;DHT22;38721;53.098;6.596;2022-10-26T01:05:26;10.50;99.90
52859;DHT22;38721;53.098;6.596;2022-10-26T01:07:53;10.50;99.90
52859;DHT22;38721;53.098;6.596;2022-10-26T01:10:19;10.50;99.90
52859;DHT22;38721;53.098;6.596;2022-10-26T01:12:48;10.40;99.90
52859;DHT22;38721;53.098;6.596;2022-10-26T01:15:14;10.40;99.90
52859;DHT22;38721;53.098;6.596;2022-10-26T01:18:05;10.40;99.90
52859;DHT22;38721;53.098;6.596;2022-10-26T01:23:44;10.30;99.90
52859;DHT22;38721;53.098;6.596;2022-10-26T01:26:29;10.30;99.90
52859;DHT22;38721;53.098;6.596;2022-10-26T01:29:13;10.20;99.90
52859;DHT22;38721;53.098;6.596;2022-10-26T01:31:54;10.20;99.90
52859;DHT22;38721;53.098;6.596;2022-10-26T01:34:28;10.30;99.90
52859;DHT22;38721;53.098;6.596;2022-10-26T01:37:02;10.10;99.90
52859;DHT22;38721;53.098;6.596;2022-10-26T01:39:54;10.20;99.90
52859;DHT22;38721;53.098;6.596;2022-10-26T01:42:23;10.20;99.90
52859;DHT22;38721;53.098;6.596;2022-10-26T01:45:00;10.10;99.90
52859;DHT22;38721;53.098;6.596;2022-10-26T01:47:29;10.00;99.90
52859;DHT22;38721;53.098;6.596;2022-10-26T01:49:57;10.00;99.90
52859;DHT22;38721;53.098;6.596;2022-10-26T01:52:23;9.80;99.90
52859;DHT22;38721;53.098;6.596;2022-10-26T01:54:49;10.00;99.90
52859;DHT22;38721;53.098;6.596;2022-10-26T01:57:23;9.90;99.90
52859;DHT22;38721;53.098;6.596;2022-10-26T02:05:35;9.80;99.90
52859;DHT22;38721;53.098;6.596;2022-10-26T02:13:55;9.80;99.90
52859;DHT22;38721;53.098;6.596;2022-10-26T02:19:07;9.70;99.90
52859;DHT22;38721;53.098;6.596;2022-10-26T02:21:39;9.70;99.90
52859;DHT22;38721;53.098;6.596;2022-10-26T02:24:10;9.70;99.90
52859;DHT22;38721;53.098;6.596;2022-10-26T02:26:39;9.80;99.90
52859;DHT22;38721;53.098;6.596;2022-10-26T02:29:09;9.80;99.90
52859;DHT22;38721;53.098;6.596;2022-10-26T02:31:36;9.70;99.90
52859;DHT22;38721;53.098;6.596;2022-10-26T02:34:06;9.60;99.90
52859;DHT22;38721;53.098;6.596;2022-10-26T02:36:43;9.60;99.90
52859;DHT22;38721;53.098;6.596;2022-10-26T02:39:10;9.60;99.90
52859;DHT22;38721;53.098;6.596;2022-10-26T02:41:39;9.50;99.90
52859;DHT22;38721;53.098;6.596;2022-10-26T02:44:23;9.50;99.90
52859;DHT22;38721;53.098;6.596;2022-10-26T02:46:50;9.60;99.90
52859;DHT22;38721;53.098;6.596;2022-10-26T02:49:17;9.40;99.90
52859;DHT22;38721;53.098;6.596;2022-10-26T02:51:54;9.50;99.90
52859;DHT22;38721;53.098;6.596;2022-10-26T02:54:51;9.50;99.90
52859;DHT22;38721;53.098;6.596;2022-10-26T02:57:31;9.60;99.90
52859;DHT22;38721;53.098;6.596;2022-10-26T02:59:59;9.60;99.90
52859;DHT22;38721;53.098;6.596;2022-10-26T03:02:25;9.50;99.90
52859;DHT22;38721;53.098;6.596;2022-10-26T03:04:52;9.40;99.90
52859;DHT22;38721;53.098;6.596;2022-10-26T03:07:22;9.40;99.90
52859;DHT22;38721;53.098;6.596;2022-10-26T03:09:49;9.40;99.90
52859;DHT22;38721;53.098;6.596;2022-10-26T03:12:15;9.50;99.90
52859;DHT22;38721;53.098;6.596;2022-10-26T03:14:41;9.40;99.90
52859;DHT22;38721;53.098;6.596;2022-10-26T03:17:07;9.40;99.90
52859;DHT22;38721;53.098;6.596;2022-10-26T03:19:32;9.40;99.90
52859;DHT22;38721;53.098;6.596;2022-10-26T03:22:01;9.30;99.90
52859;DHT22;38721;53.098;6.596;2022-10-26T03:24:26;9.30;99.90
52859;DHT22;38721;53.098;6.596;2022-10-26T03:26:52;9.40;99.90
52859;DHT22;38721;53.098;6.596;2022-10-26T03:29:21;9.40;99.90
52859;DHT22;38721;53.098;6.596;2022-10-26T03:31:49;9.40;99.90
52859;DHT22;38721;53.098;6.596;2022-10-26T03:34:20;9.30;99.90
52859;DHT22;38721;53.098;6.596;2022-10-26T03:36:49;9.30;99.90
52859;DHT22;38721;53.098;6.596;2022-10-26T03:39:14;9.30;99.90
52859;DHT22;38721;53.098;6.596;2022-10-26T03:41:40;9.30;99.90
52859;DHT22;38721;53.098;6.596;2022-10-26T03:44:06;9.30;99.90
52859;DHT22;38721;53.098;6.596;2022-10-26T03:46:31;9.20;99.90
52859;DHT22;38721;53.098;6.596;2022-10-26T03:48:57;9.20;99.90
52859;DHT22;38721;53.098;6.596;2022-10-26T03:51:22;9.20;99.90
52859;DHT22;38721;53.098;6.596;2022-10-26T03:53:48;9.30;99.90
52859;DHT22;38721;53.098;6.596;2022-10-26T03:56:14;9.40;99.90
52859;DHT22;38721;53.098;6.596;2022-10-26T03:58:39;9.30;99.90
52859;DHT22;38721;53.098;6.596;2022-10-26T04:01:05;9.30;99.90
52859;DHT22;38721;53.098;6.596;2022-10-26T04:03:30;9.20;99.90
52859;DHT22;38721;53.098;6.596;2022-10-26T04:06:00;9.20;99.90
52859;DHT22;38721;53.098;6.596;2022-10-26T04:08:26;9.30;99.90
52859;DHT22;38721;53.098;6.596;2022-10-26T04:10:51;9.30;99.90
52859;DHT22;38721;53.098;6.596;2022-10-26T04:13:17;9.20;99.90
52859;DHT22;38721;53.098;6.596;2022-10-26T04:15:43;9.30;99.90
52859;DHT22;38721;53.098;6.596;2022-10-26T04:18:09;9.30;99.90
52859;DHT22;38721;53.098;6.596;2022-10-26T04:20:37;9.20;99.90
52859;DHT22;38721;53.098;6.596;2022-10-26T04:23:05;9.10;99.90
52859;DHT22;38721;53.098;6.596;2022-10-26T04:25:32;9.10;99.90
52859;DHT22;38721;53.098;6.596;2022-10-26T04:27:58;9.20;99.90
52859;DHT22;38721;53.098;6.596;2022-10-26T04:30:24;9.10;99.90
52859;DHT22;38721;53.098;6.596;2022-10-26T04:32:50;9.20;99.90
52859;DHT22;38721;53.098;6.596;2022-10-26T04:35:16;9.20;99.90
52859;DHT22;38721;53.098;6.596;2022-10-26T04:37:41;9.30;99.90
52859;DHT22;38721;53.098;6.596;2022-10-26T04:40:07;9.20;99.90
52859;DHT22;38721;53.098;6.596;2022-10-26T04:42:44;9.30;99.90
52859;DHT22;38721;53.098;6.596;2022-10-26T04:45:11;9.30;99.90
52859;DHT22;38721;53.098;6.596;2022-10-26T04:47:37;9.40;99.90
52859;DHT22;38721;53.098;6.596;2022-10-26T04:50:04;9.40;99.90
52859;DHT22;38721;53.098;6.596;2022-10-26T04:52:33;9.40;99.90
52859;DHT22;38721;53.098;6.596;2022-10-26T04:54:59;9.40;99.90
52859;DHT22;38721;53.098;6.596;2022-10-26T04:57:25;9.60;99.90
52859;DHT22;38721;53.098;6.596;2022-10-26T04:59:50;9.60;99.90
52859;DHT22;38721;53.098;6.596;2022-10-26T05:02:16;9.60;99.90
52859;DHT22;38721;53.098;6.596;2022-10-26T05:04:42;9.60;99.90
52859;DHT22;38721;53.098;6.596;2022-10-26T05:07:07;9.60;99.90
52859;DHT22;38721;53.098;6.596;2022-10-26T05:09:36;9.70;99.90
52859;DHT22;38721;53.098;6.596;2022-10-26T05:12:02;9.80;99.90
52859;DHT22;38721;53.098;6.596;2022-10-26T05:14:28;9.70;99.90
52859;DHT22;38721;53.098;6.596;2022-10-26T05:16:53;9.80;99.90
52859;DHT22;38721;53.098;6.596;2022-10-26T05:19:20;9.90;99.90
52859;DHT22;38721;53.098;6.596;2022-10-26T05:21:46;9.90;99.90
52859;DHT22;38721;53.098;6.596;2022-10-26T05:24:11;10.00;99.90
52859;DHT22;38721;53.098;6.596;2022-10-26T05:26:40;10.00;99.90
52859;DHT22;38721;53.098;6.596;2022-10-26T05:29:06;10.00;99.90
52859;DHT22;38721;53.098;6.596;2022-10-26T05:31:34;10.10;99.90
52859;DHT22;38721;53.098;6.596;2022-10-26T05:34:00;10.20;99.90
52859;DHT22;38721;53.098;6.596;2022-10-26T05:36:26;10.20;99.90
52859;DHT22;38721;53.098;6.596;2022-10-26T05:39:00;10.20;99.90
52859;DHT22;38721;53.098;6.596;2022-10-26T05:41:26;10.30;99.90
52859;DHT22;38721;53.098;6.596;2022-10-26T05:43:54;10.40;99.90
52859;DHT22;38721;53.098;6.596;2022-10-26T05:46:19;10.40;99.90
52859;DHT22;38721;53.098;6.596;2022-10-26T05:48:48;10.30;99.90
52859;DHT22;38721;53.098;6.596;2022-10-26T05:51:14;10.40;99.90
52859;DHT22;38721;53.098;6.596;2022-10-26T05:53:46;10.50;99.90
52859;DHT22;38721;53.098;6.596;2022-10-26T05:56:29;10.50;99.90
52859;DHT22;38721;53.098;6.596;2022-10-26T05:58:58;10.60;99.90
52859;DHT22;38721;53.098;6.596;2022-10-26T06:06:56;10.70;99.90
52859;DHT22;38721;53.098;6.596;2022-10-26T06:09:23;10.60;99.90
52859;DHT22;38721;53.098;6.596;2022-10-26T06:11:49;10.60;99.90
52859;DHT22;38721;53.098;6.596;2022-10-26T06:14:15;10.60;99.90
52859;DHT22;38721;53.098;6.596;2022-10-26T06:17:01;10.60;99.90
52859;DHT22;38721;53.098;6.596;2022-10-26T06:22:18;10.60;99.90
52859;DHT22;38721;53.098;6.596;2022-10-26T06:24:55;10.70;99.90
52859;DHT22;38721;53.098;6.596;2022-10-26T06:27:45;10.80;99.90
52859;DHT22;38721;53.098;6.596;2022-10-26T06:30:15;10.80;99.90
52859;DHT22;38721;53.098;6.596;2022-10-26T06:32:45;10.80;99.90
52859;DHT22;38721;53.098;6.596;2022-10-26T06:35:48;10.80;99.90
52859;DHT22;38721;53.098;6.596;2022-10-26T06:38:17;10.90;99.90
52859;DHT22;38721;53.098;6.596;2022-10-26T06:40:48;10.80;99.90
52859;DHT22;38721;53.098;6.596;2022-10-26T06:43:30;10.90;99.90
52859;DHT22;38721;53.098;6.596;2022-10-26T06:51:26;11.00;99.90
52859;DHT22;38721;53.098;6.596;2022-10-26T06:54:05;10.90;99.90
52859;DHT22;38721;53.098;6.596;2022-10-26T06:56:33;11.00;99.90
52859;DHT22;38721;53.098;6.596;2022-10-26T06:59:34;11.00;99.90
52859;DHT22;38721;53.098;6.596;2022-10-26T07:02:01;11.00;99.90
52859;DHT22;38721;53.098;6.596;2022-10-26T07:04:27;11.00;99.90
52859;DHT22;38721;53.098;6.596;2022-10-26T07:06:53;11.10;99.90
52859;DHT22;38721;53.098;6.596;2022-10-26T07:09:21;11.10;99.90
52859;DHT22;38721;53.098;6.596;2022-10-26T07:11:47;11.20;99.90
52859;DHT22;38721;53.098;6.596;2022-10-26T07:14:13;11.30;99.90
52859;DHT22;38721;53.098;6.596;2022-10-26T07:16:39;11.30;99.90
52859;DHT22;38721;53.098;6.596;2022-10-26T07:19:04;11.30;99.90
52859;DHT22;38721;53.098;6.596;2022-10-26T07:21:30;11.50;99.90
52859;DHT22;38721;53.098;6.596;2022-10-26T07:23:56;11.50;99.90
52859;DHT22;38721;53.098;6.596;2022-10-26T07:26:25;11.40;99.90
52859;DHT22;38721;53.098;6.596;2022-10-26T07:28:54;11.60;99.90
52859;DHT22;38721;53.098;6.596;2022-10-26T07:31:22;11.70;99.90
52859;DHT22;38721;53.098;6.596;2022-10-26T07:33:48;11.70;99.90
52859;DHT22;38721;53.098;6.596;2022-10-26T07:36:19;11.70;99.90
52859;DHT22;38721;53.098;6.596;2022-10-26T07:38:51;11.80;99.90
52859;DHT22;38721;53.098;6.596;2022-10-26T07:41:20;11.80;99.90
52859;DHT22;38721;53.098;6.596;2022-10-26T07:43:45;11.90;99.90
52859;DHT22;38721;53.098;6.596;2022-10-26T07:46:12;12.00;99.90
52859;DHT22;38721;53.098;6.596;2022-10-26T07:48:37;12.00;99.90
52859;DHT22;38721;53.098;6.596;2022-10-26T07:51:04;12.10;99.90
52859;DHT22;38721;53.098;6.596;2022-10-26T07:53:32;12.20;99.90
52859;DHT22;38721;53.098;6.596;2022-10-26T07:55:58;12.10;99.90
52859;DHT22;38721;53.098;6.596;2022-10-26T07:58:26;12.10;99.90
52859;DHT22;38721;53.098;6.596;2022-10-26T08:00:53;12.40;99.90
52859;DHT22;38721;53.098;6.596;2022-10-26T08:03:19;12.30;99.90
52859;DHT22;38721;53.098;6.596;2022-10-26T08:05:46;12.40;99.90
52859;DHT22;38721;53.098;6.596;2022-10-26T08:08:18;12.60;99.90
52859;DHT22;38721;53.098;6.596;2022-10-26T08:10:44;12.60;99.90
52859;DHT22;38721;53.098;6.596;2022-10-26T08:13:11;12.80;99.90
52859;DHT22;38721;53.098;6.596;2022-10-26T08:15:37;12.90;99.90
52859;DHT22;38721;53.098;6.596;2022-10-26T08:18:09;13.00;99.90
52859;DHT22;38721;53.098;6.596;2022-10-26T08:20:34;13.10;99.90
52859;DHT22;38721;53.098;6.596;2022-10-26T08:23:00;13.00;99.90
52859;DHT22;38721;53.098;6.596;2022-10-26T08:25:28;13.00;99.90
52859;DHT22;38721;53.098;6.596;2022-10-26T08:27:55;13.30;99.90
52859;DHT22;38721;53.098;6.596;2022-10-26T08:30:25;13.40;99.90
52859;DHT22;38721;53.098;6.596;2022-10-26T08:33:00;13.30;99.90
52859;DHT22;38721;53.098;6.596;2022-10-26T08:35:26;13.30;99.90
52859;DHT22;38721;53.098;6.596;2022-10-26T08:37:52;13.40;99.90
52859;DHT22;38721;53.098;6.596;2022-10-26T08:40:24;13.40;99.90
52859;DHT22;38721;53.098;6.596;2022-10-26T08:43:04;13.50;99.90
52859;DHT22;38721;53.098;6.596;2022-10-26T08:45:46;13.60;99.90
52859;DHT22;38721;53.098;6.596;2022-10-26T08:48:18;13.60;99.90
52859;DHT22;38721;53.098;6.596;2022-10-26T08:50:54;13.60;99.90
52859;DHT22;38721;53.098;6.596;2022-10-26T08:58:44;13.90;99.90
52859;DHT22;38721;53.098;6.596;2022-10-26T09:01:11;14.00;99.90
52859;DHT22;38721;53.098;6.596;2022-10-26T09:03:36;14.20;99.90
52859;DHT22;38721;53.098;6.596;2022-10-26T09:06:17;14.20;99.90
52859;DHT22;38721;53.098;6.596;2022-10-26T09:09:07;14.30;99.90
52859;DHT22;38721;53.098;6.596;2022-10-26T09:12:14;14.30;99.90
52859;DHT22;38721;53.098;6.596;2022-10-26T09:17:34;14.30;99.90
52859;DHT22;38721;53.098;6.596;2022-10-26T09:22:49;14.30;99.90
52859;DHT22;38721;53.098;6.596;2022-10-26T09:25:20;14.50;99.90
52859;DHT22;38721;53.098;6.596;2022-10-26T09:27:57;14.60;99.90
52859;DHT22;38721;53.098;6.596;2022-10-26T09:30:23;14.70;99.90
52859;DHT22;38721;53.098;6.596;2022-10-26T09:32:58;14.80;99.90
52859;DHT22;38721;53.098;6.596;2022-10-26T09:35:40;14.80;99.90
52859;DHT22;38721;53.098;6.596;2022-10-26T09:38:31;14.90;99.90
52859;DHT22;38721;53.098;6.596;2022-10-26T09:41:17;15.00;99.90
52859;DHT22;38721;53.098;6.596;2022-10-26T09:46:33;15.20;99.90
52859;DHT22;38721;53.098;6.596;2022-10-26T09:49:04;15.30;99.90
52859;DHT22;38721;53.098;6.596;2022-10-26T09:51:35;15.40;99.90
52859;DHT22;38721;53.098;6.596;2022-10-26T09:54:07;15.50;99.90
52859;DHT22;38721;53.098;6.596;2022-10-26T09:56:37;15.70;99.90
52859;DHT22;38721;53.098;6.596;2022-10-26T09:59:05;15.60;99.90
52859;DHT22;38721;53.098;6.596;2022-10-26T10:01:33;15.50;99.90
52859;DHT22;38721;53.098;6.596;2022-10-26T10:06:41;15.70;99.90
52859;DHT22;38721;53.098;6.596;2022-10-26T10:11:58;15.90;99.90
52859;DHT22;38721;53.098;6.596;2022-10-26T10:14:28;15.90;99.90
52859;DHT22;38721;53.098;6.596;2022-10-26T10:17:00;15.90;99.90
52859;DHT22;38721;53.098;6.596;2022-10-26T10:19:28;16.00;99.90
52859;DHT22;38721;53.098;6.596;2022-10-26T10:21:57;16.10;99.90
52859;DHT22;38721;53.098;6.596;2022-10-26T10:24:31;16.20;99.90
52859;DHT22;38721;53.098;6.596;2022-10-26T10:29:39;16.40;99.90
52859;DHT22;38721;53.098;6.596;2022-10-26T10:32:08;16.60;99.90
52859;DHT22;38721;53.098;6.596;2022-10-26T10:34:38;16.70;99.90
52859;DHT22;38721;53.098;6.596;2022-10-26T10:37:04;16.60;99.90
52859;DHT22;38721;53.098;6.596;2022-10-26T10:39:40;16.70;99.90
52859;DHT22;38721;53.098;6.596;2022-10-26T10:42:20;16.80;99.90
52859;DHT22;38721;53.098;6.596;2022-10-26T10:44:50;16.90;99.90
52859;DHT22;38721;53.098;6.596;2022-10-26T10:47:25;17.00;99.90
52859;DHT22;38721;53.098;6.596;2022-10-26T10:49:56;17.10;99.90
52859;DHT22;38721;53.098;6.596;2022-10-26T10:52:29;17.10;99.90
52859;DHT22;38721;53.098;6.596;2022-10-26T11:00:43;17.40;99.90
52859;DHT22;38721;53.098;6.596;2022-10-26T11:06:23;17.40;99.90
52859;DHT22;38721;53.098;6.596;2022-10-26T11:09:11;17.60;99.90
52859;DHT22;38721;53.098;6.596;2022-10-26T11:11:52;17.60;99.90
52859;DHT22;38721;53.098;6.596;2022-10-26T11:14:29;17.70;99.90
52859;DHT22;38721;53.098;6.596;2022-10-26T11:17:06;17.70;99.90
52859;DHT22;38721;53.098;6.596;2022-10-26T11:20:08;17.80;99.90
52859;DHT22;38721;53.098;6.596;2022-10-26T11:22:41;17.90;99.90
52859;DHT22;38721;53.098;6.596;2022-10-26T11:25:18;18.10;99.90
52859;DHT22;38721;53.098;6.596;2022-10-26T11:27:55;18.20;99.90
52859;DHT22;38721;53.098;6.596;2022-10-26T11:30:25;18.10;99.90
52859;DHT22;38721;53.098;6.596;2022-10-26T11:35:58;18.20;99.90
52859;DHT22;38721;53.098;6.596;2022-10-26T11:43:56;18.30;99.90
52859;DHT22;38721;53.098;6.596;2022-10-26T11:46:31;18.20;99.90
52859;DHT22;38721;53.098;6.596;2022-10-26T11:49:38;18.40;99.90
52859;DHT22;38721;53.098;6.596;2022-10-26T11:52:23;18.30;99.90
52859;DHT22;38721;53.098;6.596;2022-10-26T11:55:02;18.40;99.90
52859;DHT22;38721;53.098;6.596;2022-10-26T11:57:36;18.60;99.90
52859;DHT22;38721;53.098;6.596;2022-10-26T12:00:08;18.60;99.90
52859;DHT22;38721;53.098;6.596;2022-10-26T12:02:40;18.70;99.90
52859;DHT22;38721;53.098;6.596;2022-10-26T12:05:22;18.80;99.90
52859;DHT22;38721;53.098;6.596;2022-10-26T12:08:11;19.10;99.90
52859;DHT22;38721;53.098;6.596;2022-10-26T12:10:41;19.00;99.90
52859;DHT22;38721;53.098;6.596;2022-10-26T12:13:34;19.10;99.90
52859;DHT22;38721;53.098;6.596;2022-10-26T12:19:03;18.90;99.90
52859;DHT22;38721;53.098;6.596;2022-10-26T12:21:31;19.10;99.90
52859;DHT22;38721;53.098;6.596;2022-10-26T12:24:24;19.00;99.90
52859;DHT22;38721;53.098;6.596;2022-10-26T12:27:01;19.20;99.90
52859;DHT22;38721;53.098;6.596;2022-10-26T12:29:47;18.90;99.90
52859;DHT22;38721;53.098;6.596;2022-10-26T12:37:37;19.40;99.90
52859;DHT22;38721;53.098;6.596;2022-10-26T12:45:42;19.20;99.90
52859;DHT22;38721;53.098;6.596;2022-10-26T12:56:28;18.80;99.90
52859;DHT22;38721;53.098;6.596;2022-10-26T13:01:43;19.10;99.90
52859;DHT22;38721;53.098;6.596;2022-10-26T13:04:28;19.40;99.90
52859;DHT22;38721;53.098;6.596;2022-10-26T13:09:44;19.60;99.90
52859;DHT22;38721;53.098;6.596;2022-10-26T13:12:10;19.40;99.90
52859;DHT22;38721;53.098;6.596;2022-10-26T13:14:40;19.40;99.90
52859;DHT22;38721;53.098;6.596;2022-10-26T13:17:27;19.40;99.90
52859;DHT22;38721;53.098;6.596;2022-10-26T13:20:00;19.20;99.90
52859;DHT22;38721;53.098;6.596;2022-10-26T13:22:26;19.20;99.90
52859;DHT22;38721;53.098;6.596;2022-10-26T13:24:57;19.00;99.90
52859;DHT22;38721;53.098;6.596;2022-10-26T13:32:34;18.90;99.90
52859;DHT22;38721;53.098;6.596;2022-10-26T13:35:01;19.10;99.90
52859;DHT22;38721;53.098;6.596;2022-10-26T13:37:30;19.40;99.90
52859;DHT22;38721;53.098;6.596;2022-10-26T13:39:58;19.70;99.90
52859;DHT22;38721;53.098;6.596;2022-10-26T13:42:26;19.40;99.90
52859;DHT22;38721;53.098;6.596;2022-10-26T13:44:53;19.40;99.90
52859;DHT22;38721;53.098;6.596;2022-10-26T13:50:19;20.10;99.90
52859;DHT22;38721;53.098;6.596;2022-10-26T13:52:50;20.60;99.90
52859;DHT22;38721;53.098;6.596;2022-10-26T13:57:49;19.30;86.30
52859;DHT22;38721;53.098;6.596;2022-10-26T14:00:22;19.10;99.90
52859;DHT22;38721;53.098;6.596;2022-10-26T14:02:48;19.00;99.90
52859;DHT22;38721;53.098;6.596;2022-10-26T14:05:16;19.00;99.90
52859;DHT22;38721;53.098;6.596;2022-10-26T14:07:49;19.00;99.90
52859;DHT22;38721;53.098;6.596;2022-10-26T14:10:29;18.80;99.90
52859;DHT22;38721;53.098;6.596;2022-10-26T14:12:57;18.90;99.90
52859;DHT22;38721;53.098;6.596;2022-10-26T14:15:29;19.30;99.90
52859;DHT22;38721;53.098;6.596;2022-10-26T14:17:58;19.10;99.90
52859;DHT22;38721;53.098;6.596;2022-10-26T14:20:25;19.20;99.90
52859;DHT22;38721;53.098;6.596;2022-10-26T14:22:52;18.90;99.90
52859;DHT22;38721;53.098;6.596;2022-10-26T14:25:24;18.70;99.90
52859;DHT22;38721;53.098;6.596;2022-10-26T14:27:50;18.90;99.90
52859;DHT22;38721;53.098;6.596;2022-10-26T14:32:47;19.80;99.90
52859;DHT22;38721;53.098;6.596;2022-10-26T14:35:13;19.70;1.00
52859;DHT22;38721;53.098;6.596;2022-10-26T14:37:50;19.80;99.90
52859;DHT22;38721;53.098;6.596;2022-10-26T14:40:18;19.80;17.80
52859;DHT22;38721;53.098;6.596;2022-10-26T14:42:47;19.50;99.90
52859;DHT22;38721;53.098;6.596;2022-10-26T14:45:24;19.20;1.00
52859;DHT22;38721;53.098;6.596;2022-10-26T14:47:53;19.00;1.00
52859;DHT22;38721;53.098;6.596;2022-10-26T14:50:21;18.80;90.20
52859;DHT22;38721;53.098;6.596;2022-10-26T14:52:56;18.60;99.90
52859;DHT22;38721;53.098;6.596;2022-10-26T14:55:23;18.50;99.90
52859;DHT22;38721;53.098;6.596;2022-10-26T14:57:51;18.30;99.90
52859;DHT22;38721;53.098;6.596;2022-10-26T15:00:19;18.10;99.90
52859;DHT22;38721;53.098;6.596;2022-10-26T15:02:54;18.00;99.90
52859;DHT22;38721;53.098;6.596;2022-10-26T15:05:29;18.00;99.90
52859;DHT22;38721;53.098;6.596;2022-10-26T15:07:58;17.90;99.90
52859;DHT22;38721;53.098;6.596;2022-10-26T15:13:30;17.90;99.90
52859;DHT22;38721;53.098;6.596;2022-10-26T15:16:07;17.60;99.90
52859;DHT22;38721;53.098;6.596;2022-10-26T15:18:35;17.60;99.90
52859;DHT22;38721;53.098;6.596;2022-10-26T15:21:15;17.60;99.90
52859;DHT22;38721;53.098;6.596;2022-10-26T15:23:43;17.50;99.90
52859;DHT22;38721;53.098;6.596;2022-10-26T15:26:10;17.40;99.90
52859;DHT22;38721;53.098;6.596;2022-10-26T15:33:38;17.20;99.90
52859;DHT22;38721;53.098;6.596;2022-10-26T15:38:36;17.20;99.90
52859;DHT22;38721;53.098;6.596;2022-10-26T15:43:49;17.10;99.90
52859;DHT22;38721;53.098;6.596;2022-10-26T15:46:15;17.10;99.90
52859;DHT22;38721;53.098;6.596;2022-10-26T15:48:42;17.10;99.90
52859;DHT22;38721;53.098;6.596;2022-10-26T15:51:12;16.90;99.90
52859;DHT22;38721;53.098;6.596;2022-10-26T15:53:38;16.90;99.90
52859;DHT22;38721;53.098;6.596;2022-10-26T15:56:12;16.70;99.90
52859;DHT22;38721;53.098;6.596;2022-10-26T15:58:39;16.70;99.90
52859;DHT22;38721;53.098;6.596;2022-10-26T16:01:05;16.60;99.90
52859;DHT22;38721;53.098;6.596;2022-10-26T16:03:31;16.60;99.90
52859;DHT22;38721;53.098;6.596;2022-10-26T16:05:59;16.50;99.90
52859;DHT22;38721;53.098;6.596;2022-10-26T16:08:29;16.50;99.90
52859;DHT22;38721;53.098;6.596;2022-10-26T16:10:56;16.40;99.90
52859;DHT22;38721;53.098;6.596;2022-10-26T16:13:21;16.30;99.90
52859;DHT22;38721;53.098;6.596;2022-10-26T16:15:47;16.30;99.90
52859;DHT22;38721;53.098;6.596;2022-10-26T16:18:13;16.20;99.90
52859;DHT22;38721;53.098;6.596;2022-10-26T16:20:39;16.20;99.90
52859;DHT22;38721;53.098;6.596;2022-10-26T16:23:08;16.20;99.90
52859;DHT22;38721;53.098;6.596;2022-10-26T16:25:39;16.10;99.90
52859;DHT22;38721;53.098;6.596;2022-10-26T16:28:05;16.10;99.90
52859;DHT22;38721;53.098;6.596;2022-10-26T16:30:30;16.00;99.90
52859;DHT22;38721;53.098;6.596;2022-10-26T16:32:56;16.10;99.90
52859;DHT22;38721;53.098;6.596;2022-10-26T16:35:22;16.10;99.90
52859;DHT22;38721;53.098;6.596;2022-10-26T16:37:48;16.10;99.90
52859;DHT22;38721;53.098;6.596;2022-10-26T16:40:14;16.10;99.90
52859;DHT22;38721;53.098;6.596;2022-10-26T16:42:40;16.10;99.90
52859;DHT22;38721;53.098;6.596;2022-10-26T16:45:13;16.20;99.90
52859;DHT22;38721;53.098;6.596;2022-10-26T16:47:39;16.20;99.90
52859;DHT22;38721;53.098;6.596;2022-10-26T16:50:10;16.20;99.90
52859;DHT22;38721;53.098;6.596;2022-10-26T16:52:37;16.10;99.90
52859;DHT22;38721;53.098;6.596;2022-10-26T16:55:04;16.20;99.90
52859;DHT22;38721;53.098;6.596;2022-10-26T16:57:31;16.20;99.90
52859;DHT22;38721;53.098;6.596;2022-10-26T16:59:56;16.20;99.90
52859;DHT22;38721;53.098;6.596;2022-10-26T17:02:23;16.20;99.90
52859;DHT22;38721;53.098;6.596;2022-10-26T17:04:51;16.20;99.90
52859;DHT22;38721;53.098;6.596;2022-10-26T17:07:17;16.10;99.90
52859;DHT22;38721;53.098;6.596;2022-10-26T17:09:43;16.00;99.90
52859;DHT22;38721;53.098;6.596;2022-10-26T17:12:08;15.90;99.90
52859;DHT22;38721;53.098;6.596;2022-10-26T17:14:36;15.80;99.90
52859;DHT22;38721;53.098;6.596;2022-10-26T17:17:02;15.70;99.90
52859;DHT22;38721;53.098;6.596;2022-10-26T17:19:27;15.70;99.90
52859;DHT22;38721;53.098;6.596;2022-10-26T17:21:53;15.70;99.90
52859;DHT22;38721;53.098;6.596;2022-10-26T17:24:19;15.60;99.90
52859;DHT22;38721;53.098;6.596;2022-10-26T17:26:45;15.60;99.90
52859;DHT22;38721;53.098;6.596;2022-10-26T17:29:14;15.60;99.90
52859;DHT22;38721;53.098;6.596;2022-10-26T17:31:40;15.50;99.90
52859;DHT22;38721;53.098;6.596;2022-10-26T17:34:05;15.50;99.90
52859;DHT22;38721;53.098;6.596;2022-10-26T17:36:34;15.40;99.90
52859;DHT22;38721;53.098;6.596;2022-10-26T17:39:00;15.40;99.90
52859;DHT22;38721;53.098;6.596;2022-10-26T17:41:26;15.40;99.90
52859;DHT22;38721;53.098;6.596;2022-10-26T17:43:52;15.50;99.90
52859;DHT22;38721;53.098;6.596;2022-10-26T17:46:23;15.40;99.90
52859;DHT22;38721;53.098;6.596;2022-10-26T17:48:56;15.40;99.90
52859;DHT22;38721;53.098;6.596;2022-10-26T17:51:22;15.30;99.90
52859;DHT22;38721;53.098;6.596;2022-10-26T17:53:49;15.30;99.90
52859;DHT22;38721;53.098;6.596;2022-10-26T17:56:23;15.30;99.90
52859;DHT22;38721;53.098;6.596;2022-10-26T17:58:53;15.30;99.90